Time;durP1;ratioP1;P1;durP2;ratioP2;P2;SDS_P1;SDS_P2;PMS_P1;PMS_P2;Temp;Humidity;BMP_temperature;BMP_pressure;BME280_temperature;BME280_humidity;BME280_pressure;Samples;Min_cycle;Max_cycle;Signal;HPM_P1;HPM_P2
2023/02/24 00:01:38;;;;;;;;;;;;;;;20.22;53.51;100518.38;5066737;28;2590;-82
2023/02/24 00:04:08;;;;;;;;;;;;;;;20.22;53.35;100509.75;5068943;28;2731;-80
2023/02/24 00:06:35;;;;;;;;;;;;;;;20.21;53.64;100508.28;5067776;28;2947;-80
2023/02/24 00:09:05;;;;;;;;;;;;;;;20.20;53.43;100507.53;5073802;28;2893;-81
2023/02/24 00:11:32;;;;;;;;;;;;;;;20.20;53.56;100503.91;5067859;28;3136;-81
2023/02/24 00:13:58;;;;;;;;;;;;;;;20.19;53.44;100499.56;5068937;28;2532;-82
2023/02/24 00:16:25;;;;;;;;;;;;;;;20.19;53.46;100493.81;5062817;28;2919;-82
2023/02/24 00:18:52;;;;;;;;;;;;;;;20.18;53.61;100492.31;5063064;28;2853;-82
2023/02/24 00:21:18;;;;;;;;;;;;;;;20.18;53.37;100498.06;5067682;28;2325;-84
2023/02/24 00:23:45;;;;;;;;;;;;;;;20.17;53.41;100496.59;5066376;28;3002;-82
2023/02/24 00:26:12;;;;;;;;;;;;;;;20.18;53.45;100495.19;5064273;28;2846;-81
2023/02/24 00:28:39;;;;;;;;;;;;;;;20.17;53.52;100496.59;5055871;28;3021;-83
2023/02/24 00:31:09;;;;;;;;;;;;;;;20.17;53.43;100499.47;5057486;28;2651;-82
2023/02/24 00:33:38;;;;;;;;;;;;;;;20.16;53.48;100492.25;5085528;28;2662;-84
2023/02/24 00:36:08;;;;;;;;;;;;;;;20.14;53.41;100500.81;5065493;28;2580;-84
2023/02/24 00:38:35;;;;;;;;;;;;;;;20.15;53.41;100499.41;5061925;28;2552;-84
2023/02/24 00:41:07;;;;;;;;;;;;;;;20.14;53.54;100503.69;5062187;28;2711;-78
2023/02/24 00:43:36;;;;;;;;;;;;;;;20.14;53.42;100500.81;5054380;28;2707;-80
2023/02/24 00:46:09;;;;;;;;;;;;;;;20.13;53.32;100496.44;5066370;28;2729;-81
2023/02/24 00:48:39;;;;;;;;;;;;;;;20.12;53.35;100501.44;5054831;28;2930;-82
2023/02/24 00:51:09;;;;;;;;;;;;;;;20.12;53.31;100498.56;5063552;28;2776;-79
2023/02/24 00:53:37;;;;;;;;;;;;;;;20.10;53.41;100498.47;5066235;28;2685;-82
2023/02/24 00:56:06;;;;;;;;;;;;;;;20.09;53.45;100497.75;5054735;28;2482;-81
2023/02/24 00:58:35;;;;;;;;;;;;;;;20.09;53.26;100497.75;5049568;28;2830;-83
2023/02/24 01:01:03;;;;;;;;;;;;;;;20.09;53.29;100491.28;5062725;28;2948;-82
2023/02/24 01:03:31;;;;;;;;;;;;;;;20.08;53.21;100490.50;5057125;28;2697;-81
2023/02/24 01:06:03;;;;;;;;;;;;;;;20.07;53.19;100489.03;5068643;28;2340;-80
2023/02/24 01:08:29;;;;;;;;;;;;;;;20.07;53.16;100483.28;5061165;28;2918;-80
2023/02/24 01:12:00;;;;;;;;;;;;;;;20.06;53.16;100493.28;5088123;28;2704;-79
2023/02/24 01:13:44;;;;;;;;;;;;;;;20.05;53.12;100486.09;5059218;28;2825;-80
2023/02/24 01:16:13;;;;;;;;;;;;;;;20.04;52.99;100487.50;5064522;28;2780;-79
2023/02/24 01:18:40;;;;;;;;;;;;;;;20.05;53.08;100488.22;5056881;28;2859;-79
2023/02/24 01:21:07;;;;;;;;;;;;;;;20.05;52.91;100496.84;5055307;28;2784;-79
2023/02/24 01:23:34;;;;;;;;;;;;;;;20.05;52.94;100488.97;5058823;28;2794;-80
2023/02/24 01:26:01;;;;;;;;;;;;;;;20.05;52.83;100483.22;5060826;28;2726;-83
2023/02/24 01:28:27;;;;;;;;;;;;;;;20.07;52.70;100488.31;5062461;28;3036;-81
2023/02/24 01:30:54;;;;;;;;;;;;;;;20.08;52.94;100484.75;5067908;28;2884;-82
2023/02/24 01:33:22;;;;;;;;;;;;;;;20.10;52.94;100492.75;5064660;28;2764;-82
2023/02/24 01:35:49;;;;;;;;;;;;;;;20.12;52.95;100489.22;5064799;28;2852;-81
2023/02/24 01:38:21;;;;;;;;;;;;;;;20.12;53.07;100471.97;5067725;28;2648;-79
2023/02/24 01:40:55;;;;;;;;;;;;;;;20.13;53.31;100473.44;5070402;28;2201;-81
2023/02/24 01:43:21;;;;;;;;;;;;;;;20.14;53.18;100466.31;5052067;28;2909;-81
2023/02/24 01:45:50;;;;;;;;;;;;;;;20.14;53.16;100469.19;5044273;28;2976;-82
2023/02/24 01:48:16;;;;;;;;;;;;;;;20.14;53.07;100469.19;5064541;28;2622;-80
2023/02/24 01:50:43;;;;;;;;;;;;;;;20.15;53.27;100464.91;5071241;28;3078;-81
2023/02/24 01:53:10;;;;;;;;;;;;;;;20.13;53.18;100468.41;5073428;28;2793;-81
2023/02/24 01:55:39;;;;;;;;;;;;;;;20.14;53.34;100469.19;5103940;27;2689;-80
2023/02/24 01:58:08;;;;;;;;;;;;;;;20.14;53.28;100457.69;5071883;28;2733;-80
2023/02/24 02:00:37;;;;;;;;;;;;;;;20.12;53.27;100466.22;5066968;28;2804;-80
2023/02/24 02:03:06;;;;;;;;;;;;;;;20.10;53.27;100461.13;5072507;28;2694;-79
2023/02/24 02:05:33;;;;;;;;;;;;;;;20.10;53.24;100449.63;5075942;28;2412;-79
2023/02/24 02:08:02;;;;;;;;;;;;;;;20.08;53.07;100464.63;5068048;28;2698;-78
2023/02/24 02:10:28;;;;;;;;;;;;;;;20.08;52.99;100456.03;5072472;28;2787;-80
2023/02/24 02:12:54;;;;;;;;;;;;;;;20.08;53.06;100456.03;5069674;28;2670;-80
2023/02/24 02:15:21;;;;;;;;;;;;;;;20.07;53.05;100451.69;5057292;28;2813;-78
2023/02/24 02:18:14;;;;;;;;;;;;;;;20.06;53.00;100453.06;5107380;27;2723;-84
2023/02/24 02:21:02;;;;;;;;;;;;;;;20.04;53.14;100450.13;5056052;28;2518;-82
2023/02/24 02:23:44;;;;;;;;;;;;;;;20.03;52.89;100440.00;5059106;28;2792;-82
2023/02/24 02:26:18;;;;;;;;;;;;;;;20.03;52.83;100436.41;5072551;28;2803;-80
2023/02/24 02:29:05;;;;;;;;;;;;;;;20.03;52.69;100439.28;5094629;27;2688;-80
2023/02/24 02:35:51;;;;;;;;;;;;;;;20.01;52.63;100442.78;5055947;28;2800;-79
2023/02/24 02:38:17;;;;;;;;;;;;;;;20.01;52.55;100451.41;5074842;28;2664;-79
2023/02/24 02:40:47;;;;;;;;;;;;;;;20.00;52.54;100437.72;5063518;28;2801;-77
2023/02/24 02:43:18;;;;;;;;;;;;;;;20.00;52.49;100446.34;5069739;28;2796;-79
2023/02/24 02:45:48;;;;;;;;;;;;;;;19.99;52.64;100444.84;5102776;28;2965;-78
2023/02/24 02:48:29;;;;;;;;;;;;;;;19.97;52.52;100439.00;5099197;28;2802;-78
2023/02/24 02:51:02;;;;;;;;;;;;;;;19.97;52.37;100434.00;5062204;28;2567;-77
2023/02/24 02:53:31;;;;;;;;;;;;;;;19.95;52.38;100436.06;5096760;28;2673;-79
2023/02/24 02:56:07;;;;;;;;;;;;;;;19.95;52.30;100436.81;5095906;28;2828;-78
2023/02/24 02:58:34;;;;;;;;;;;;;;;19.94;52.29;100426.69;5090496;28;2672;-79
2023/02/24 03:01:01;;;;;;;;;;;;;;;19.95;52.42;100439.69;5084235;28;2849;-78
2023/02/24 03:03:32;;;;;;;;;;;;;;;19.96;52.14;100438.28;5072703;28;2654;-79
2023/02/24 03:06:08;;;;;;;;;;;;;;;19.96;52.34;100426.06;5088285;28;2681;-80
2023/02/24 03:08:36;;;;;;;;;;;;;;;19.96;52.19;100421.03;5070304;28;2603;-78
2023/02/24 03:11:04;;;;;;;;;;;;;;;19.97;52.23;100416.75;5079644;28;2769;-79
2023/02/24 03:13:30;;;;;;;;;;;;;;;19.99;52.25;100416.09;5083870;28;2755;-80
2023/02/24 03:16:02;;;;;;;;;;;;;;;20.00;52.27;100417.59;5045774;28;2161;-79
2023/02/24 03:18:32;;;;;;;;;;;;;;;20.01;52.41;100410.44;5097550;28;2262;-80
2023/02/24 03:21:06;;;;;;;;;;;;;;;20.01;52.35;100408.31;5071212;28;2433;-78
2023/02/24 03:23:39;;;;;;;;;;;;;;;20.02;52.57;100401.19;5072015;28;2456;-80
2023/02/24 03:26:15;;;;;;;;;;;;;;;20.02;52.71;100401.19;5070752;28;2240;-79
2023/02/24 03:28:47;;;;;;;;;;;;;;;20.03;52.66;100401.91;5077497;28;2246;-79
2023/02/24 03:31:13;;;;;;;;;;;;;;;20.02;52.82;100406.16;5041700;28;2439;-79
2023/02/24 03:33:40;;;;;;;;;;;;;;;20.02;52.79;100406.16;5066970;28;2283;-80
2023/02/24 03:36:07;;;;;;;;;;;;;;;20.02;52.57;100401.19;5108471;28;2273;-79
2023/02/24 03:38:37;;;;;;;;;;;;;;;20.02;52.63;100392.56;5087317;28;2107;-78
2023/02/24 03:41:09;;;;;;;;;;;;;;;20.02;52.56;100388.91;5049518;28;2474;-78
2023/02/24 03:43:46;;;;;;;;;;;;;;;20.01;52.68;100385.31;5084596;28;2520;-80
2023/02/24 03:46:13;;;;;;;;;;;;;;;20.00;52.63;100375.22;5069312;28;2599;-79
2023/02/24 03:48:45;;;;;;;;;;;;;;;20.01;52.80;100382.44;5063238;28;2980;-78
2023/02/24 03:51:15;;;;;;;;;;;;;;;20.03;52.78;100381.78;5069914;28;2382;-77
2023/02/24 03:54:02;;;;;;;;;;;;;;;20.04;52.80;100369.66;5052078;28;3022;-80
2023/02/24 03:56:49;;;;;;;;;;;;;;;20.05;52.83;100376.84;5070880;28;2326;-76
2023/02/24 03:59:22;;;;;;;;;;;;;;;20.05;52.75;100371.13;5079069;28;2393;-76
2023/02/24 04:01:57;;;;;;;;;;;;;;;20.05;52.89;100365.38;5053271;28;2813;-75
2023/02/24 04:04:36;;;;;;;;;;;;;;;20.06;52.97;100361.09;5091654;27;2687;-78
2023/02/24 04:07:12;;;;;;;;;;;;;;;20.07;52.93;100361.84;5080235;28;2879;-78
2023/02/24 04:09:38;;;;;;;;;;;;;;;20.08;53.00;100354.69;5084622;28;3090;-78
2023/02/24 04:12:17;;;;;;;;;;;;;;;20.06;52.84;100357.47;5063256;28;2832;-77
2023/02/24 04:14:48;;;;;;;;;;;;;;;20.07;52.87;100356.09;5087884;27;2800;-77
2023/02/24 04:17:19;;;;;;;;;;;;;;;20.07;52.79;100356.81;5071952;28;3136;-77
2023/02/24 04:19:47;;;;;;;;;;;;;;;20.06;52.81;100352.47;5083839;28;2656;-79
2023/02/24 04:22:16;;;;;;;;;;;;;;;20.06;52.97;100352.47;5066339;28;2235;-78
2023/02/24 04:24:43;;;;;;;;;;;;;;;20.07;52.65;100341.72;5082367;28;2031;-78
2023/02/24 04:27:10;;;;;;;;;;;;;;;20.08;52.82;100346.78;5064610;28;2423;-79
2023/02/24 04:29:40;;;;;;;;;;;;;;;20.09;52.70;100333.91;5082306;28;2371;-78
2023/02/24 04:32:07;;;;;;;;;;;;;;;20.08;52.84;100338.16;5051972;28;2759;-79
2023/02/24 04:34:36;;;;;;;;;;;;;;;20.10;52.75;100331.78;5055555;28;2694;-79
2023/02/24 04:37:02;;;;;;;;;;;;;;;20.09;52.87;100333.91;5064910;28;2409;-77
2023/02/24 04:39:29;;;;;;;;;;;;;;;20.08;52.95;100335.28;5050261;28;2752;-77
2023/02/24 04:41:58;;;;;;;;;;;;;;;20.09;52.72;100333.91;5055086;28;2858;-77
2023/02/24 04:44:26;;;;;;;;;;;;;;;20.09;52.71;100333.91;5065103;28;2699;-77
2023/02/24 04:46:54;;;;;;;;;;;;;;;20.08;52.67;100329.53;5055913;28;2743;-79
2023/02/24 04:49:21;;;;;;;;;;;;;;;20.09;52.50;100322.41;5064698;28;3023;-79
2023/02/24 04:51:47;;;;;;;;;;;;;;;20.08;52.76;100320.94;5062509;28;2555;-77
2023/02/24 04:54:16;;;;;;;;;;;;;;;20.08;52.62;100312.31;5060971;28;2697;-80
2023/02/24 04:56:43;;;;;;;;;;;;;;;20.08;52.67;100306.56;5088016;27;2197;-80
2023/02/24 04:59:10;;;;;;;;;;;;;;;20.09;52.82;100307.31;5055737;28;2392;-79
2023/02/24 05:01:39;;;;;;;;;;;;;;;20.10;52.66;100305.91;5060461;28;2271;-78
2023/02/24 05:04:07;;;;;;;;;;;;;;;20.08;52.79;100300.81;5057835;28;2508;-77
2023/02/24 05:06:33;;;;;;;;;;;;;;;20.11;52.72;100298.75;5059027;28;2796;-77
2023/02/24 05:09:12;;;;;;;;;;;;;;;20.10;52.60;100285.78;5061023;28;2610;-78
2023/02/24 05:11:41;;;;;;;;;;;;;;;20.09;52.57;100287.94;5061294;28;2725;-78
2023/02/24 05:14:08;;;;;;;;;;;;;;;20.09;52.68;100290.81;5064599;28;2863;-77
2023/02/24 05:16:34;;;;;;;;;;;;;;;20.08;52.66;100283.56;5064008;28;2687;-78
2023/02/24 05:21:46;;;;;;;;;;;;;;;20.11;52.53;100286.50;5070876;28;2658;-79
2023/02/24 05:24:16;;;;;;;;;;;;;;;20.11;52.43;100280.78;5068017;28;2948;-79
2023/02/24 05:26:42;;;;;;;;;;;;;;;20.13;52.64;100277.97;5057034;28;2753;-82
2023/02/24 05:29:09;;;;;;;;;;;;;;;20.12;52.56;100280.13;5058797;28;2462;-80
2023/02/24 05:31:36;;;;;;;;;;;;;;;20.14;52.67;100267.97;5051448;28;2383;-77
2023/02/24 05:34:06;;;;;;;;;;;;;;;20.14;52.64;100267.97;5065320;28;2769;-78
2023/02/24 05:36:38;;;;;;;;;;;;;;;20.13;52.67;100264.34;5062812;28;2745;-78
2023/02/24 05:39:11;;;;;;;;;;;;;;;20.14;52.64;100267.97;5062855;28;2824;-79
2023/02/24 05:41:38;;;;;;;;;;;;;;;20.14;52.63;100262.22;5064523;28;2251;-82
2023/02/24 05:44:07;;;;;;;;;;;;;;;20.13;52.56;100254.97;5100512;27;2882;-80
2023/02/24 05:46:35;;;;;;;;;;;;;;;20.12;52.56;100254.25;5068233;28;2766;-80
2023/02/24 05:49:02;;;;;;;;;;;;;;;20.12;52.64;100260.00;5064633;28;2812;-81
2023/02/24 05:51:34;;;;;;;;;;;;;;;20.13;52.55;100249.22;5061522;28;2796;-81
2023/02/24 05:54:03;;;;;;;;;;;;;;;20.12;52.51;100251.38;5070053;28;2686;-78
2023/02/24 05:56:30;;;;;;;;;;;;;;;20.12;52.53;100247.75;5067515;28;2477;-78
2023/02/24 05:59:03;;;;;;;;;;;;;;;20.11;52.57;100243.41;5066070;28;2921;-78
2023/02/24 06:01:30;;;;;;;;;;;;;;;20.10;52.61;100245.53;5066518;28;2735;-79
2023/02/24 06:04:06;;;;;;;;;;;;;;;20.09;52.73;100244.81;5069212;28;2880;-79
2023/02/24 06:06:34;;;;;;;;;;;;;;;20.08;52.39;100243.31;5071083;28;2832;-78
2023/02/24 06:09:08;;;;;;;;;;;;;;;20.09;52.67;100239.06;5067543;28;2999;-78
2023/02/24 06:11:35;;;;;;;;;;;;;;;20.08;52.36;100226.06;5063622;28;2617;-78
2023/02/24 06:14:02;;;;;;;;;;;;;;;20.06;52.39;100228.88;5070814;28;2775;-79
2023/02/24 06:16:28;;;;;;;;;;;;;;;20.05;52.20;100232.44;5066197;28;3088;-78
2023/02/24 06:18:56;;;;;;;;;;;;;;;20.09;52.77;100227.56;5095208;27;2844;-69
2023/02/24 06:21:23;;;;;;;;;;;;;;;20.12;52.99;100221.91;5063704;28;2860;-74
2023/02/24 06:23:50;;;;;;;;;;;;;;;20.15;53.97;100220.56;5068909;28;2984;-71
2023/02/24 06:26:18;;;;;;;;;;;;;;;20.12;53.86;100214.00;5073473;28;2622;-70
2023/02/24 06:28:45;;;;;;;;;;;;;;;20.05;53.39;100227.41;5068449;28;2859;-59
2023/02/24 06:31:12;;;;;;;;;;;;;;;18.24;43.38;100221.41;5068803;28;2833;-61
2023/02/24 06:33:39;;;;;;;;;;;;;;;18.92;45.00;100212.84;5059686;28;2649;-61
2023/02/24 06:36:06;;;;;;;;;;;;;;;19.36;46.67;100207.47;5061983;28;2752;-61
2023/02/24 06:38:32;;;;;;;;;;;;;;;19.65;45.99;100209.31;5063608;28;2859;-62
2023/02/24 06:41:02;;;;;;;;;;;;;;;19.67;46.05;100207.25;5065634;28;2850;-61
2023/02/24 06:43:31;;;;;;;;;;;;;;;19.76;46.37;100207.63;5066659;28;2630;-61
2023/02/24 06:45:58;;;;;;;;;;;;;;;19.75;46.17;100206.16;5067500;28;2799;-61
2023/02/24 06:48:24;;;;;;;;;;;;;;;19.80;45.61;100190.53;5067804;28;2910;-61
2023/02/24 06:50:51;;;;;;;;;;;;;;;18.40;40.58;100204.91;5063008;28;2841;-64
2023/02/24 06:53:17;;;;;;;;;;;;;;;17.22;37.15;100196.59;5058322;28;2880;-62
2023/02/24 06:55:45;;;;;;;;;;;;;;;16.66;36.47;100199.56;5063624;28;2917;-62
2023/02/24 06:58:15;;;;;;;;;;;;;;;16.34;36.76;100202.22;5044730;28;3001;-60
2023/02/24 07:00:44;;;;;;;;;;;;;;;17.36;36.07;100198.03;5057664;28;3658;-66
2023/02/24 07:03:14;;;;;;;;;;;;;;;18.20;37.53;100184.69;5057569;28;3184;-66
2023/02/24 07:05:41;;;;;;;;;;;;;;;18.66;37.71;100178.03;5062250;28;3172;-69
2023/02/24 07:08:08;;;;;;;;;;;;;;;18.91;39.00;100174.09;5064817;28;2773;-68
2023/02/24 07:10:34;;;;;;;;;;;;;;;18.97;38.55;100174.34;5065522;28;2934;-68
2023/02/24 07:13:00;;;;;;;;;;;;;;;19.03;38.75;100183.94;5065488;28;2874;-68
2023/02/24 07:15:30;;;;;;;;;;;;;;;19.03;39.22;100180.31;5059140;28;3051;-68
2023/02/24 07:17:57;;;;;;;;;;;;;;;19.05;39.32;100171.78;5068437;28;2816;-68
2023/02/24 07:20:25;;;;;;;;;;;;;;;19.12;39.22;100172.78;5071624;28;2974;-67
2023/02/24 07:22:51;;;;;;;;;;;;;;;19.15;39.46;100169.34;5071051;28;2805;-68
2023/02/24 07:25:32;;;;;;;;;;;;;;;19.17;39.35;100166.56;5073604;28;2943;-67
2023/02/24 07:28:00;;;;;;;;;;;;;;;19.20;39.55;100156.63;5072601;28;3205;-66
2023/02/24 07:30:28;;;;;;;;;;;;;;;19.28;40.05;100161.22;5067197;28;3086;-66
2023/02/24 07:32:55;;;;;;;;;;;;;;;19.39;41.25;100151.63;5055783;28;3002;-68
2023/02/24 07:35:22;;;;;;;;;;;;;;;19.77;41.83;100140.13;5052128;28;4550;-64
2023/02/24 07:37:49;;;;;;;;;;;;;;;20.14;42.27;100138.63;5055316;28;4785;-63
2023/02/24 07:40:16;;;;;;;;;;;;;;;20.40;42.21;100130.91;5076324;28;2819;-64
2023/02/24 07:42:42;;;;;;;;;;;;;;;20.63;41.87;100129.56;5067223;28;4531;-64
2023/02/24 07:45:09;;;;;;;;;;;;;;;20.74;42.38;100124.88;5076781;28;2854;-64
2023/02/24 07:47:35;;;;;;;;;;;;;;;20.83;42.44;100129.50;5081354;28;2590;-64
2023/02/24 07:50:02;;;;;;;;;;;;;;;20.85;42.77;100118.06;5074692;28;3019;-68
2023/02/24 07:52:31;;;;;;;;;;;;;;;20.93;43.10;100112.56;5058600;28;3020;-71
2023/02/24 07:54:59;;;;;;;;;;;;;;;21.00;43.22;100098.38;5066963;28;2898;-68
2023/02/24 07:57:25;;;;;;;;;;;;;;;21.01;43.10;100096.97;5064891;28;2389;-67
2023/02/24 07:59:54;;;;;;;;;;;;;;;21.08;43.25;100092.88;5063539;28;1910;-66
2023/02/24 08:02:22;;;;;;;;;;;;;;;21.13;43.46;100091.59;5071039;28;2857;-64
2023/02/24 08:04:50;;;;;;;;;;;;;;;21.17;43.67;100088.09;5071195;28;2742;-64
2023/02/24 08:07:23;;;;;;;;;;;;;;;21.20;43.90;100087.47;5073711;28;2982;-63
2023/02/24 08:10:09;;;;;;;;;;;;;;;21.24;44.17;100081.84;5072484;28;3038;-64
2023/02/24 08:12:37;;;;;;;;;;;;;;;21.28;44.09;100075.47;5070436;28;2984;-64
2023/02/24 08:15:15;;;;;;;;;;;;;;;21.31;44.44;100072.00;5067345;28;2946;-64
2023/02/24 08:17:42;;;;;;;;;;;;;;;21.39;44.33;100067.88;5064761;28;3016;-64
2023/02/24 08:22:45;;;;;;;;;;;;;;;21.32;44.74;100050.41;5068660;28;2859;-66
2023/02/24 08:25:17;;;;;;;;;;;;;;;21.36;44.65;100043.31;5068021;28;2969;-64
2023/02/24 08:27:44;;;;;;;;;;;;;;;21.27;45.19;100034.44;5104050;27;2325;-66
2023/02/24 08:30:22;;;;;;;;;;;;;;;21.17;45.87;100051.41;5075010;28;1675;-65
2023/02/24 08:32:55;;;;;;;;;;;;;;;21.12;46.33;100046.94;5073543;28;1616;-66
2023/02/24 08:35:30;;;;;;;;;;;;;;;21.09;46.48;100042.50;5072273;28;1859;-66
2023/02/24 08:38:17;;;;;;;;;;;;;;;21.27;46.58;100027.94;5072837;28;1690;-64
2023/02/24 08:40:51;;;;;;;;;;;;;;;21.25;46.01;100027.88;5070118;28;1925;-63
2023/02/24 08:43:31;;;;;;;;;;;;;;;21.25;46.38;100025.72;5072084;28;1757;-64
2023/02/24 08:45:58;;;;;;;;;;;;;;;21.27;46.42;100028.66;5066730;28;1702;-64
2023/02/24 08:48:48;;;;;;;;;;;;;;;21.26;46.67;100027.22;5067965;28;1636;-64
2023/02/24 08:51:33;;;;;;;;;;;;;;;21.49;46.62;100016.38;5066503;28;1668;-69
2023/02/24 08:54:09;;;;;;;;;;;;;;;21.56;45.96;100012.25;5095076;27;1646;-70
2023/02/24 08:56:42;;;;;;;;;;;;;;;21.53;46.06;100005.69;5062105;28;1680;-67
2023/02/24 09:02:17;;;;;;;;;;;;;;;21.57;47.02;100002.19;5063665;28;2568;-68
2023/02/24 09:04:47;;;;;;;;;;;;;;;21.72;46.43;99989.63;5059378;28;4602;-71
2023/02/24 09:07:17;;;;;;;;;;;;;;;21.70;46.17;99985.97;5059220;28;4817;-78
2023/02/24 09:09:44;;;;;;;;;;;;;;;21.50;46.24;99983.25;5096112;27;2343;-74
2023/02/24 09:12:20;;;;;;;;;;;;;;;21.40;46.96;99985.84;5067645;28;2492;-76
2023/02/24 09:14:48;;;;;;;;;;;;;;;21.37;47.33;99972.78;5061826;28;1832;-86
2023/02/24 09:17:19;;;;;;;;;;;;;;;21.36;47.13;99974.19;5064110;28;2614;-77
2023/02/24 09:22:31;;;;;;;;;;;;;;;21.01;47.38;99956.66;5056269;28;2927;-64
2023/02/24 09:27:53;;;;;;;;;;;;;;;20.78;48.02;99951.66;5070987;28;2927;-69
2023/02/24 09:30:35;;;;;;;;;;;;;;;20.86;48.13;99949.75;5063320;28;4359;-68
2023/02/24 09:33:17;;;;;;;;;;;;;;;20.89;48.00;99945.53;5063508;28;3197;-70
2023/02/24 09:35:45;;;;;;;;;;;;;;;20.92;47.92;99947.06;5073895;28;1862;-70
2023/02/24 09:38:16;;;;;;;;;;;;;;;20.91;47.86;99936.97;5067978;28;3014;-70
2023/02/24 09:40:52;;;;;;;;;;;;;;;20.91;47.73;99934.09;5075862;28;1909;-70
2023/02/24 09:43:19;;;;;;;;;;;;;;;20.91;47.94;99925.47;5067168;28;3013;-70
2023/02/24 09:45:52;;;;;;;;;;;;;;;20.92;47.82;99924.03;5077769;28;1835;-70
2023/02/24 09:48:31;;;;;;;;;;;;;;;20.92;47.85;99924.03;5076349;28;1790;-70
2023/02/24 09:51:02;;;;;;;;;;;;;;;20.92;47.92;99926.19;5107505;27;1780;-70
2023/02/24 09:53:48;;;;;;;;;;;;;;;20.92;47.62;99915.41;5098359;27;2942;-70
2023/02/24 09:56:35;;;;;;;;;;;;;;;20.92;47.71;99921.16;5101558;27;1652;-70
2023/02/24 09:59:11;;;;;;;;;;;;;;;20.91;47.96;99913.94;5069683;28;2647;-70
2023/02/24 10:02:01;;;;;;;;;;;;;;;20.93;47.82;99916.84;5074473;28;1910;-70
2023/02/24 10:04:47;;;;;;;;;;;;;;;20.95;47.74;99896.06;5070298;28;3487;-69
2023/02/24 10:07:15;;;;;;;;;;;;;;;20.95;47.76;99901.81;5098821;27;2939;-70
2023/02/24 10:09:42;;;;;;;;;;;;;;;20.93;47.98;99893.84;5071960;28;1890;-69
2023/02/24 10:12:17;;;;;;;;;;;;;;;20.93;47.80;99896.72;5069585;28;2874;-70
2023/02/24 10:15:17;;;;;;;;;;;;;;;20.94;48.00;99888.84;5070488;28;2371;-69
2023/02/24 10:17:46;;;;;;;;;;;;;;;20.92;47.93;99886.63;5096649;27;2662;-70
2023/02/24 10:20:27;;;;;;;;;;;;;;;20.92;48.08;99886.63;5071139;28;1899;-69
2023/02/24 10:22:56;;;;;;;;;;;;;;;20.92;48.04;99880.88;5058585;28;3254;-71
2023/02/24 10:25:34;;;;;;;;;;;;;;;20.48;46.09;99881.00;5057047;28;3133;-69
2023/02/24 10:28:24;;;;;;;;;;;;;;;20.37;45.60;99876.34;5095904;27;2738;-68
2023/02/24 10:31:09;;;;;;;;;;;;;;;20.63;45.18;99872.81;5059846;28;3017;-68
2023/02/24 10:33:37;;;;;;;;;;;;;;;20.77;44.73;99869.63;5062052;28;3009;-71
2023/02/24 10:36:07;;;;;;;;;;;;;;;20.80;46.13;99869.03;5063046;28;4672;-67
2023/02/24 10:38:35;;;;;;;;;;;;;;;20.77;45.72;99864.59;5061299;28;4388;-69
2023/02/24 10:41:04;;;;;;;;;;;;;;;20.85;45.73;99859.09;5064454;28;1980;-69
2023/02/24 10:43:32;;;;;;;;;;;;;;;20.88;46.07;99857.72;5064223;28;3121;-71
2023/02/24 10:46:05;;;;;;;;;;;;;;;20.87;46.93;99862.03;5068244;28;2975;-70
2023/02/24 10:48:37;;;;;;;;;;;;;;;20.99;47.04;99844.38;5061223;28;2798;-69
2023/02/24 10:51:18;;;;;;;;;;;;;;;21.03;47.23;99849.50;5061381;28;2585;-67
2023/02/24 10:53:51;;;;;;;;;;;;;;;21.05;47.39;99846.66;5059889;28;3158;-67
2023/02/24 10:56:40;;;;;;;;;;;;;;;21.04;47.28;99845.22;5057176;28;3085;-66
2023/02/24 11:01:54;;;;;;;;;;;;;;;21.01;47.54;99830.03;5049886;28;3306;-65
2023/02/24 11:04:32;;;;;;;;;;;;;;;20.99;47.50;99832.84;5054916;28;4307;-66
2023/02/24 11:07:08;;;;;;;;;;;;;;;21.02;47.72;99825.00;5050848;28;2964;-66
2023/02/24 11:09:42;;;;;;;;;;;;;;;21.01;47.56;99815.66;5065838;28;3299;-64
2023/02/24 11:17:45;;;;;;;;;;;;;;;20.93;48.07;99812.53;5095377;27;3171;-65
2023/02/24 11:20:16;;;;;;;;;;;;;;;21.03;47.75;99809.22;5065340;28;3240;-67
2023/02/24 11:22:42;;;;;;;;;;;;;;;21.04;47.51;99799.16;5068215;28;3407;-66
2023/02/24 11:25:13;;;;;;;;;;;;;;;21.08;47.46;99793.53;5070297;28;2627;-65
2023/02/24 11:27:43;;;;;;;;;;;;;;;21.11;47.44;99786.41;5097899;27;3548;-65
2023/02/24 11:30:22;;;;;;;;;;;;;;;21.14;47.48;99779.28;5101896;27;3253;-66
2023/02/24 11:32:49;;;;;;;;;;;;;;;21.19;47.29;99780.09;5097010;27;3101;-66
2023/02/24 11:35:26;;;;;;;;;;;;;;;21.13;47.40;99772.78;5072868;28;2912;-66
2023/02/24 11:37:52;;;;;;;;;;;;;;;21.17;47.63;99766.41;5102896;27;3041;-65
2023/02/24 11:40:25;;;;;;;;;;;;;;;21.16;47.38;99758.44;5073313;28;2572;-65
2023/02/24 11:42:55;;;;;;;;;;;;;;;21.16;47.38;99752.69;5100016;27;2693;-67
2023/02/24 11:45:30;;;;;;;;;;;;;;;21.11;47.68;99749.69;5100149;27;2887;-67
2023/02/24 11:47:58;;;;;;;;;;;;;;;21.11;47.60;99743.22;5066696;28;4092;-66
2023/02/24 11:50:30;;;;;;;;;;;;;;;21.09;47.39;99728.78;5053833;28;3142;-66
2023/02/24 11:52:57;;;;;;;;;;;;;;;21.14;47.35;99730.34;5074962;28;3483;-66
2023/02/24 11:55:31;;;;;;;;;;;;;;;21.14;47.30;99727.47;5069257;28;2778;-66
2023/02/24 11:58:02;;;;;;;;;;;;;;;21.16;47.44;99718.88;5101465;27;2404;-67
2023/02/24 12:00:30;;;;;;;;;;;;;;;21.07;47.75;99711.44;5101669;27;2665;-67
2023/02/24 12:03:02;;;;;;;;;;;;;;;21.17;47.86;99696.59;5094219;27;3501;-67
2023/02/24 12:05:35;;;;;;;;;;;;;;;21.26;47.69;99692.50;5062455;28;3047;-70
2023/02/24 12:08:19;;;;;;;;;;;;;;;21.08;48.11;99684.16;5070527;28;2851;-64
2023/02/24 12:10:47;;;;;;;;;;;;;;;21.22;47.91;99683.75;5085879;27;3136;-64
2023/02/24 12:13:13;;;;;;;;;;;;;;;21.19;47.90;99668.59;5100042;27;2589;-64
2023/02/24 12:15:41;;;;;;;;;;;;;;;21.14;48.02;99664.13;5059238;28;2991;-63
2023/02/24 12:18:29;;;;;;;;;;;;;;;21.16;47.60;99666.34;5064015;28;2527;-65
2023/02/24 12:21:04;;;;;;;;;;;;;;;21.18;47.73;99666.38;5089220;27;2863;-63
2023/02/24 12:23:34;;;;;;;;;;;;;;;21.17;47.78;99659.91;5093326;27;2852;-64
2023/02/24 12:26:22;;;;;;;;;;;;;;;21.16;47.44;99655.53;5064972;28;2328;-63
2023/02/24 12:28:57;;;;;;;;;;;;;;;21.15;47.37;99645.47;5065351;28;2864;-70
2023/02/24 12:31:30;;;;;;;;;;;;;;;21.19;47.01;99648.44;5098078;27;2908;-65
2023/02/24 12:34:10;;;;;;;;;;;;;;;21.15;47.79;99641.84;5080967;28;1585;-62
2023/02/24 12:36:42;;;;;;;;;;;;;;;21.16;47.80;99644.03;5075099;28;2699;-63
2023/02/24 12:39:27;;;;;;;;;;;;;;;21.22;47.67;99634.81;5100795;27;2961;-65
2023/02/24 12:42:26;;;;;;;;;;;;;;;21.08;47.34;99629.47;5066267;28;3145;-65
2023/02/24 12:44:55;;;;;;;;;;;;;;;21.11;47.83;99630.97;5049426;28;2926;-68
2023/02/24 12:47:24;;;;;;;;;;;;;;;21.18;47.77;99621.06;5074912;28;3366;-68
2023/02/24 12:49:54;;;;;;;;;;;;;;;21.24;47.72;99609.69;5067538;28;2888;-67
2023/02/24 12:52:33;;;;;;;;;;;;;;;21.10;47.84;99603.59;5104167;27;4991;-66
2023/02/24 12:55:00;;;;;;;;;;;;;;;20.97;48.15;99604.72;5068890;28;2492;-64
2023/02/24 12:57:30;;;;;;;;;;;;;;;20.99;47.96;99596.16;5075571;28;2967;-67
2023/02/24 12:59:56;;;;;;;;;;;;;;;21.01;48.08;99588.28;5104707;27;2929;-66
2023/02/24 13:02:27;;;;;;;;;;;;;;;21.08;48.09;99580.53;5099773;27;3123;-66
2023/02/24 13:04:57;;;;;;;;;;;;;;;21.10;48.05;99578.44;5077110;28;1580;-66
2023/02/24 13:07:40;;;;;;;;;;;;;;;21.12;47.84;99572.00;5077820;28;1952;-66
2023/02/24 13:10:25;;;;;;;;;;;;;;;21.14;47.92;99566.25;5110444;27;2832;-66
2023/02/24 13:13:09;;;;;;;;;;;;;;;21.14;47.96;99554.75;5063895;28;1663;-66
2023/02/24 13:15:36;;;;;;;;;;;;;;;21.14;47.82;99560.50;5060548;28;1604;-67
2023/02/24 13:18:02;;;;;;;;;;;;;;;21.14;48.05;99551.88;5065074;28;1544;-65
2023/02/24 13:20:30;;;;;;;;;;;;;;;21.13;47.80;99550.41;5064031;28;2750;-65
2023/02/24 13:22:57;;;;;;;;;;;;;;;21.15;48.06;99544.72;5110453;27;1901;-65
2023/02/24 13:25:27;;;;;;;;;;;;;;;21.15;47.87;99530.31;5068630;28;2836;-65
2023/02/24 13:28:03;;;;;;;;;;;;;;;21.13;48.02;99536.03;5071370;28;2580;-66
2023/02/24 13:30:37;;;;;;;;;;;;;;;21.12;48.14;99531.69;5110499;27;1769;-66
2023/02/24 13:33:03;;;;;;;;;;;;;;;21.11;48.07;99528.06;5099689;27;2608;-66
2023/02/24 13:35:31;;;;;;;;;;;;;;;21.09;48.03;99515.78;5074509;28;2890;-67
2023/02/24 13:38:05;;;;;;;;;;;;;;;21.07;48.28;99516.50;5076521;28;2567;-67